createdAt,value
2023-01-23T00:00:06.950Z,49.47
2023-01-23T00:01:06.954Z,43.34
2023-01-23T00:02:07.012Z,43.18
2023-01-23T00:03:06.939Z,42.86
2023-01-23T00:04:06.913Z,43.18
2023-01-23T00:05:06.908Z,49.95
2023-01-23T00:06:06.957Z,59.78
2023-01-23T00:07:06.904Z,56.72
2023-01-23T00:08:06.894Z,52.37
2023-01-23T00:09:06.880Z,55.75
2023-01-23T00:10:06.867Z,44.79
2023-01-23T00:11:06.851Z,49.47
2023-01-23T00:12:06.898Z,45.28
2023-01-23T00:13:06.819Z,43.51
2023-01-23T00:14:06.841Z,45.28
2023-01-23T00:15:06.843Z,55.59
2023-01-23T00:16:06.831Z,43.67
2023-01-23T00:17:06.814Z,44.15
2023-01-23T00:18:07.042Z,50.11
2023-01-23T00:19:06.770Z,48.02
2023-01-23T00:20:06.783Z,44.96
2023-01-23T00:21:06.740Z,59.94
2023-01-23T00:22:06.748Z,41.73
2023-01-23T00:23:06.747Z,45.76
2023-01-23T00:24:06.725Z,48.18
2023-01-23T00:25:06.755Z,53.01
2023-01-23T00:26:06.708Z,43.51
2023-01-23T00:27:06.710Z,55.75
2023-01-23T00:28:06.992Z,56.72
2023-01-23T00:29:06.671Z,44.63
2023-01-23T00:30:06.679Z,47.70
2023-01-23T00:31:06.775Z,43.99
2023-01-23T00:32:06.687Z,42.86
2023-01-23T00:33:06.641Z,50.27
2023-01-23T00:34:06.716Z,42.54
2023-01-23T00:35:06.626Z,42.22
2023-01-23T00:36:07.312Z,41.41
2023-01-23T00:37:06.631Z,51.88
2023-01-23T00:38:07.397Z,42.22
2023-01-23T00:39:06.697Z,45.28
2023-01-23T00:40:06.567Z,41.73
2023-01-23T00:41:06.573Z,42.86
2023-01-23T00:42:06.537Z,52.37
2023-01-23T00:43:06.535Z,41.73
2023-01-23T00:44:06.525Z,44.15
2023-01-23T00:45:06.514Z,41.57
2023-01-23T00:46:06.522Z,42.54
2023-01-23T00:47:06.476Z,53.82
2023-01-23T00:48:06.482Z,42.70
2023-01-23T00:49:06.515Z,44.63
2023-01-23T00:50:06.451Z,46.08
2023-01-23T00:51:06.483Z,43.02
2023-01-23T00:52:06.478Z,42.22
2023-01-23T00:53:06.438Z,48.02
2023-01-23T00:54:06.447Z,50.76
2023-01-23T00:55:06.417Z,43.18
2023-01-23T00:56:06.421Z,42.38
2023-01-23T00:57:06.434Z,44.96
2023-01-23T00:58:06.409Z,44.96
2023-01-23T00:59:06.441Z,44.47
2023-01-23T01:00:06.353Z,51.72
2023-01-23T01:01:06.343Z,44.63
2023-01-23T01:02:06.346Z,42.86
2023-01-23T01:03:06.401Z,44.79
2023-01-23T01:04:06.392Z,43.99
2023-01-23T01:05:06.329Z,42.54
2023-01-23T01:06:06.293Z,47.37
2023-01-23T01:07:06.312Z,42.06
2023-01-23T01:08:06.333Z,45.60
2023-01-23T01:09:06.320Z,42.06
2023-01-23T01:10:06.260Z,42.70
2023-01-23T01:11:06.315Z,45.44
2023-01-23T01:12:06.257Z,42.06
2023-01-23T01:13:06.228Z,45.44
2023-01-23T01:14:06.303Z,43.83
2023-01-23T01:15:06.239Z,43.18
2023-01-23T01:16:06.232Z,44.79
2023-01-23T01:17:06.179Z,56.88
2023-01-23T01:18:06.199Z,43.18
2023-01-23T01:19:06.175Z,43.51
2023-01-23T01:20:06.186Z,54.95
2023-01-23T01:21:06.172Z,47.70
2023-01-23T01:22:06.141Z,47.86
2023-01-23T01:23:06.127Z,44.79
2023-01-23T01:24:06.113Z,44.63
2023-01-23T01:25:06.102Z,42.70
2023-01-23T01:26:06.106Z,46.89
2023-01-23T01:27:06.120Z,48.18
2023-01-23T01:28:06.091Z,42.70
2023-01-23T01:29:06.144Z,44.15
2023-01-23T01:30:06.135Z,43.51
2023-01-23T01:31:06.151Z,47.37
2023-01-23T01:32:06.035Z,46.25
2023-01-23T01:33:06.025Z,43.51
2023-01-23T01:34:06.058Z,43.67
2023-01-23T01:35:06.013Z,43.18
2023-01-23T01:36:05.990Z,43.51
2023-01-23T01:37:06.010Z,43.18
2023-01-23T01:38:07.832Z,43.51
2023-01-23T01:39:05.988Z,43.18
2023-01-23T01:40:05.999Z,48.18
2023-01-23T01:41:05.983Z,43.83
2023-01-23T01:42:05.999Z,52.05
2023-01-23T01:43:05.925Z,42.86
2023-01-23T01:44:05.935Z,42.38
2023-01-23T01:45:05.936Z,43.99
2023-01-23T01:46:05.916Z,43.83
2023-01-23T01:47:05.915Z,42.86
2023-01-23T01:48:06.020Z,43.02
2023-01-23T01:49:05.960Z,43.18
2023-01-23T01:50:05.869Z,43.18
2023-01-23T01:51:05.905Z,46.57
2023-01-23T01:52:05.887Z,44.79
2023-01-23T01:53:05.847Z,45.12
2023-01-23T01:54:05.843Z,45.76
2023-01-23T01:55:05.892Z,46.73
2023-01-23T01:56:05.792Z,45.76
2023-01-23T01:57:05.786Z,44.63
2023-01-23T01:58:05.778Z,46.08
2023-01-23T01:59:05.813Z,45.28
2023-01-23T02:00:05.807Z,48.02
2023-01-23T02:01:05.822Z,45.44
2023-01-23T02:02:05.746Z,51.72
2023-01-23T02:03:05.715Z,55.11
2023-01-23T02:04:05.738Z,43.83
2023-01-23T02:05:05.708Z,44.96
2023-01-23T02:06:05.724Z,61.71
2023-01-23T02:07:05.705Z,49.63
2023-01-23T02:08:05.688Z,44.96
2023-01-23T02:09:05.681Z,44.31
2023-01-23T02:10:05.693Z,43.99
2023-01-23T02:11:05.684Z,44.15
2023-01-23T02:12:05.703Z,43.02
2023-01-23T02:13:05.623Z,44.31
2023-01-23T02:14:05.613Z,43.34
2023-01-23T02:15:05.601Z,47.05
2023-01-23T02:16:05.644Z,48.34
2023-01-23T02:17:05.617Z,44.31
2023-01-23T02:18:05.570Z,43.83
2023-01-23T02:19:05.602Z,43.99
2023-01-23T02:20:05.558Z,48.66
2023-01-23T02:21:05.536Z,43.83
2023-01-23T02:22:05.565Z,44.96
2023-01-23T02:23:05.547Z,42.86
2023-01-23T02:24:05.503Z,43.18
2023-01-23T02:25:05.525Z,46.41
2023-01-23T02:26:05.485Z,57.85
2023-01-23T02:27:05.499Z,45.12
2023-01-23T02:28:05.529Z,45.60
2023-01-23T02:29:05.472Z,43.67
2023-01-23T02:30:05.503Z,43.34
2023-01-23T02:31:05.545Z,44.63
2023-01-23T02:32:05.522Z,43.34
2023-01-23T02:33:05.431Z,48.82
2023-01-23T02:34:05.446Z,53.01
2023-01-23T02:35:05.411Z,43.83
2023-01-23T02:36:05.402Z,46.25
2023-01-23T02:37:05.387Z,44.96
2023-01-23T02:38:05.381Z,45.60
2023-01-23T02:39:05.388Z,57.52
2023-01-23T02:40:05.349Z,45.92
2023-01-23T02:41:05.400Z,43.51
2023-01-23T02:42:05.355Z,43.67
2023-01-23T02:43:05.384Z,50.43
2023-01-23T02:44:05.308Z,45.44
2023-01-23T02:45:05.323Z,43.02
2023-01-23T02:46:05.389Z,42.70
2023-01-23T02:47:05.317Z,53.01
2023-01-23T02:48:05.291Z,54.62
2023-01-23T02:49:05.284Z,46.41
2023-01-23T02:50:05.309Z,43.51
2023-01-23T02:51:05.343Z,51.24
2023-01-23T02:52:05.261Z,43.18
2023-01-23T02:53:05.234Z,50.43
2023-01-23T02:54:05.241Z,44.47
2023-01-23T02:55:05.223Z,44.31
2023-01-23T02:56:05.198Z,43.18
2023-01-23T02:57:05.203Z,51.08
2023-01-23T02:58:05.210Z,45.76
2023-01-23T02:59:05.188Z,43.99
2023-01-23T03:00:05.148Z,46.08
2023-01-23T03:01:05.267Z,47.86
2023-01-23T03:02:05.215Z,56.07
2023-01-23T03:03:05.151Z,43.67
2023-01-23T03:04:05.105Z,43.67
2023-01-23T03:05:05.140Z,46.41
2023-01-23T03:06:05.095Z,48.18
2023-01-23T03:07:05.132Z,45.92
2023-01-23T03:08:05.156Z,47.70
2023-01-23T03:09:05.069Z,69.61
2023-01-23T03:10:05.058Z,45.44
2023-01-23T03:11:05.050Z,44.96
2023-01-23T03:12:05.053Z,43.67
2023-01-23T03:13:05.052Z,44.31
2023-01-23T03:14:05.031Z,46.57
2023-01-23T03:15:05.041Z,45.28
2023-01-23T03:16:05.071Z,62.36
2023-01-23T03:17:05.001Z,66.23
2023-01-23T03:18:05.002Z,50.92
2023-01-23T03:19:04.997Z,45.44
2023-01-23T03:20:04.960Z,47.86
2023-01-23T03:21:04.970Z,45.60
2023-01-23T03:22:04.932Z,50.60
2023-01-23T03:23:04.951Z,56.07
2023-01-23T03:24:04.928Z,44.15
2023-01-23T03:25:04.900Z,45.12
2023-01-23T03:26:04.924Z,44.15
2023-01-23T03:27:04.894Z,53.33
2023-01-23T03:28:04.921Z,45.60
2023-01-23T03:29:04.871Z,48.98
2023-01-23T03:30:04.862Z,61.07
2023-01-23T03:31:04.967Z,43.99
2023-01-23T03:32:04.834Z,46.89
2023-01-23T03:33:04.855Z,54.46
2023-01-23T03:34:04.831Z,47.37
2023-01-23T03:35:04.802Z,45.12
2023-01-23T03:36:04.785Z,47.53
2023-01-23T03:37:04.799Z,49.47
2023-01-23T03:38:04.793Z,55.11
2023-01-23T03:39:04.787Z,47.86
2023-01-23T03:40:04.784Z,56.72
2023-01-23T03:41:04.784Z,48.82
2023-01-23T03:42:04.726Z,50.60
2023-01-23T03:43:04.720Z,52.69
2023-01-23T03:44:04.754Z,47.37
2023-01-23T03:45:04.712Z,51.88
2023-01-23T03:46:04.761Z,46.25
2023-01-23T03:47:04.725Z,56.07
2023-01-23T03:48:04.683Z,46.57
2023-01-23T03:49:04.667Z,47.37
2023-01-23T03:50:04.687Z,57.04
2023-01-23T03:51:04.713Z,46.73
2023-01-23T03:52:04.651Z,50.27
2023-01-23T03:53:04.634Z,47.37
2023-01-23T03:54:04.611Z,45.12
2023-01-23T03:55:04.633Z,59.46
2023-01-23T03:56:04.717Z,44.15
2023-01-23T03:57:04.603Z,48.98
2023-01-23T03:58:04.585Z,48.50
2023-01-23T03:59:04.570Z,48.50
2023-01-23T04:00:04.616Z,48.34
2023-01-23T04:01:04.591Z,52.37
2023-01-23T04:02:04.559Z,52.69
2023-01-23T04:03:04.649Z,54.62
2023-01-23T04:04:04.529Z,48.82
2023-01-23T04:05:04.513Z,50.76
2023-01-23T04:06:04.501Z,53.01
2023-01-23T04:07:04.522Z,50.92
2023-01-23T04:08:04.495Z,66.06
2023-01-23T04:09:04.494Z,63.81
2023-01-23T04:10:04.476Z,49.95
2023-01-23T04:11:04.450Z,51.40
2023-01-23T04:12:04.439Z,50.27
2023-01-23T04:13:04.480Z,50.92
2023-01-23T04:14:04.448Z,50.76
2023-01-23T04:15:04.421Z,60.10
2023-01-23T04:16:04.429Z,56.72
2023-01-23T04:17:04.387Z,58.01
2023-01-23T04:18:04.384Z,56.56
2023-01-23T04:19:04.420Z,64.78
2023-01-23T04:20:04.364Z,56.24
2023-01-23T04:21:04.376Z,51.08
2023-01-23T04:22:04.367Z,49.15
2023-01-23T04:23:04.338Z,55.75
2023-01-23T04:24:04.332Z,55.11
2023-01-23T04:25:04.308Z,53.17
2023-01-23T04:26:04.313Z,51.88
2023-01-23T04:27:04.294Z,60.59
2023-01-23T04:28:04.293Z,53.82
2023-01-23T04:29:04.299Z,47.37
2023-01-23T04:30:04.287Z,58.17
2023-01-23T04:31:04.411Z,56.24
2023-01-23T04:32:04.238Z,58.01
2023-01-23T04:33:04.238Z,55.11
2023-01-23T04:34:04.240Z,53.01
2023-01-23T04:35:04.223Z,50.76
2023-01-23T04:36:04.229Z,60.10
2023-01-23T04:37:04.201Z,59.94
2023-01-23T04:38:04.173Z,59.94
2023-01-23T04:39:04.185Z,50.92
2023-01-23T04:40:04.187Z,55.59
2023-01-23T04:41:04.189Z,70.25
2023-01-23T04:42:04.150Z,55.11
2023-01-23T04:43:04.129Z,72.03
2023-01-23T04:44:04.133Z,59.30
2023-01-23T04:45:04.108Z,57.36
2023-01-23T04:46:04.156Z,55.75
2023-01-23T04:47:04.098Z,61.07
2023-01-23T04:48:04.056Z,69.77
2023-01-23T04:49:04.084Z,59.14
2023-01-23T04:50:04.062Z,53.66
2023-01-23T04:51:04.174Z,50.43
2023-01-23T04:52:04.036Z,52.53
2023-01-23T04:53:04.095Z,57.20
2023-01-23T04:54:04.068Z,57.52
2023-01-23T04:55:04.025Z,57.04
2023-01-23T04:56:04.007Z,57.04
2023-01-23T04:57:04.027Z,58.33
2023-01-23T04:58:04.003Z,51.88
2023-01-23T04:59:03.968Z,52.85
2023-01-23T05:00:03.967Z,58.33
2023-01-23T05:01:04.022Z,52.37
2023-01-23T05:02:04.142Z,58.81
2023-01-23T05:03:03.935Z,60.42
2023-01-23T05:04:03.969Z,54.30
2023-01-23T05:05:03.930Z,66.71
2023-01-23T05:06:03.941Z,58.49
2023-01-23T05:07:03.959Z,55.75
2023-01-23T05:08:03.879Z,65.26
2023-01-23T05:09:03.876Z,56.88
2023-01-23T05:10:03.870Z,57.52
2023-01-23T05:11:03.858Z,69.45
2023-01-23T05:12:03.867Z,61.87
2023-01-23T05:13:03.853Z,60.42
2023-01-23T05:14:03.841Z,58.65
2023-01-23T05:15:03.851Z,56.88
2023-01-23T05:16:03.898Z,71.70
2023-01-23T05:17:03.816Z,71.06
2023-01-23T05:18:03.839Z,61.55
2023-01-23T05:19:03.786Z,64.45
2023-01-23T05:20:03.781Z,58.97
2023-01-23T05:21:03.793Z,60.91
2023-01-23T05:22:03.741Z,57.04
2023-01-23T05:23:03.770Z,57.69
2023-01-23T05:24:03.750Z,48.82
2023-01-23T05:25:03.733Z,63.65
2023-01-23T05:26:03.742Z,63.97
2023-01-23T05:27:03.746Z,69.61
2023-01-23T05:28:03.692Z,59.14
2023-01-23T05:29:03.694Z,53.01
2023-01-23T05:30:03.686Z,54.46
2023-01-23T05:31:03.885Z,60.26
2023-01-23T05:32:03.631Z,75.41
2023-01-23T05:33:03.641Z,58.01
2023-01-23T05:34:03.617Z,57.36
2023-01-23T05:35:03.569Z,69.77
2023-01-23T05:36:03.603Z,66.39
2023-01-23T05:37:03.679Z,56.40
2023-01-23T05:38:03.578Z,61.87
2023-01-23T05:39:03.597Z,67.68
2023-01-23T05:40:03.560Z,59.78
2023-01-23T05:41:03.563Z,60.75
2023-01-23T05:42:03.546Z,64.13
2023-01-23T05:43:03.580Z,60.10
2023-01-23T05:44:03.520Z,53.17
2023-01-23T05:45:03.528Z,60.75
2023-01-23T05:46:03.603Z,62.68
2023-01-23T05:47:03.441Z,61.39
2023-01-23T05:48:03.539Z,65.74
2023-01-23T05:49:03.514Z,59.78
2023-01-23T05:50:03.421Z,69.77
2023-01-23T05:51:03.530Z,68.00
2023-01-23T05:52:03.436Z,68.80
2023-01-23T05:53:03.505Z,67.03
2023-01-23T05:54:03.516Z,57.04
2023-01-23T05:55:03.455Z,56.88
2023-01-23T05:56:03.449Z,62.84
2023-01-23T05:57:03.416Z,61.55
2023-01-23T05:58:03.402Z,60.42
2023-01-23T05:59:03.409Z,55.75
2023-01-23T06:00:03.428Z,58.81
2023-01-23T06:01:03.459Z,59.30
2023-01-23T06:02:03.366Z,61.23
2023-01-23T06:03:03.299Z,66.55
2023-01-23T06:04:03.287Z,69.61
2023-01-23T06:05:03.355Z,67.68
2023-01-23T06:06:03.345Z,66.23
2023-01-23T06:07:03.312Z,65.74
2023-01-23T06:08:03.267Z,71.22
2023-01-23T06:09:03.236Z,82.98
2023-01-23T06:10:03.220Z,70.42
2023-01-23T06:11:03.289Z,71.38
2023-01-23T06:12:03.207Z,70.58
2023-01-23T06:13:03.188Z,71.87
2023-01-23T06:14:03.264Z,61.07
2023-01-23T06:15:03.486Z,71.87
2023-01-23T06:16:03.289Z,64.29
2023-01-23T06:17:03.216Z,68.16
2023-01-23T06:18:03.283Z,60.42
2023-01-23T06:19:03.219Z,68.64
2023-01-23T06:20:03.190Z,65.74
2023-01-23T06:21:03.180Z,67.51
2023-01-23T06:22:03.197Z,62.36
2023-01-23T06:23:03.132Z,68.64
2023-01-23T06:24:03.163Z,68.96
2023-01-23T06:25:03.066Z,70.74
2023-01-23T06:26:03.129Z,72.51
2023-01-23T06:27:03.116Z,73.80
2023-01-23T06:28:03.064Z,73.64
2023-01-23T06:29:03.029Z,73.48
2023-01-23T06:30:03.088Z,71.70
2023-01-23T06:31:03.185Z,77.50
2023-01-23T06:32:02.995Z,76.05
2023-01-23T06:33:02.979Z,79.92
2023-01-23T06:34:03.017Z,79.76
2023-01-23T06:35:02.968Z,78.15
2023-01-23T06:36:02.996Z,76.22
2023-01-23T06:37:03.008Z,72.19
2023-01-23T06:38:03.007Z,72.19
2023-01-23T06:39:02.920Z,73.80
2023-01-23T06:40:02.969Z,76.54
2023-01-23T06:41:02.956Z,76.22
2023-01-23T06:42:02.951Z,75.57
2023-01-23T06:43:02.913Z,68.64
2023-01-23T06:44:02.902Z,63.49
2023-01-23T06:45:02.889Z,70.90
2023-01-23T06:46:02.876Z,68.96
2023-01-23T06:47:02.853Z,68.16
2023-01-23T06:48:02.917Z,63.97
2023-01-23T06:49:05.215Z,65.26
2023-01-23T06:50:02.860Z,70.74
2023-01-23T06:51:02.830Z,64.94
2023-01-23T06:52:02.808Z,62.52
2023-01-23T06:53:03.095Z,77.02
2023-01-23T06:54:02.871Z,72.19
2023-01-23T06:55:02.829Z,74.93
2023-01-23T06:56:02.778Z,72.51
2023-01-23T06:57:02.761Z,72.67
2023-01-23T06:58:02.765Z,70.09
2023-01-23T06:59:02.746Z,75.09
2023-01-23T07:00:02.798Z,78.63
2023-01-23T07:01:02.726Z,76.70
2023-01-23T07:02:02.705Z,75.57
2023-01-23T07:03:02.770Z,75.57
2023-01-23T07:04:02.708Z,70.58
2023-01-23T07:05:02.704Z,69.61
2023-01-23T07:06:02.686Z,71.70
2023-01-23T07:07:02.651Z,68.96
2023-01-23T07:08:04.790Z,71.70
2023-01-23T07:09:02.856Z,65.26
2023-01-23T07:10:02.632Z,69.61
2023-01-23T07:11:02.608Z,68.80
2023-01-23T07:12:02.627Z,67.51
2023-01-23T07:13:02.647Z,68.48
2023-01-23T07:14:02.580Z,75.57
2023-01-23T07:15:02.609Z,61.23
2023-01-23T07:16:02.625Z,68.48
2023-01-23T07:17:02.849Z,67.68
2023-01-23T07:18:02.554Z,73.32
2023-01-23T07:19:02.588Z,67.51
2023-01-23T07:20:02.548Z,59.78
2023-01-23T07:21:02.508Z,63.97
2023-01-23T07:22:02.507Z,59.30
2023-01-23T07:23:04.642Z,62.84
2023-01-23T07:24:02.495Z,68.96
2023-01-23T07:25:02.467Z,68.48
2023-01-23T07:26:02.731Z,65.42
2023-01-23T07:27:02.454Z,76.86
2023-01-23T07:28:02.437Z,70.74
2023-01-23T07:29:02.470Z,64.13
2023-01-23T07:30:02.423Z,63.97
2023-01-23T07:31:02.592Z,71.54
2023-01-23T07:32:02.432Z,75.41
2023-01-23T07:33:02.434Z,61.71
2023-01-23T07:34:02.408Z,68.48
2023-01-23T07:35:02.380Z,68.80
2023-01-23T07:36:02.372Z,64.61
2023-01-23T07:37:02.358Z,61.71
2023-01-23T07:38:02.374Z,62.84
2023-01-23T07:39:02.385Z,73.48
2023-01-23T07:40:04.381Z,73.15
2023-01-23T07:41:02.377Z,62.52
2023-01-23T07:42:02.388Z,63.33
2023-01-23T07:43:02.312Z,67.19
2023-01-23T07:44:02.295Z,60.91
2023-01-23T07:45:02.337Z,60.75
2023-01-23T07:46:02.387Z,65.42
2023-01-23T07:47:02.289Z,65.90
2023-01-23T07:48:02.285Z,64.61
2023-01-23T07:49:02.283Z,70.58
2023-01-23T07:50:02.217Z,67.68
2023-01-23T07:51:02.235Z,68.48
2023-01-23T07:52:02.231Z,60.59
2023-01-23T07:53:02.188Z,63.33
2023-01-23T07:54:02.171Z,63.97
2023-01-23T07:55:02.206Z,59.94
2023-01-23T07:56:02.163Z,58.81
2023-01-23T07:57:02.239Z,59.78
2023-01-23T07:58:02.199Z,61.39
2023-01-23T07:59:02.152Z,69.77
2023-01-23T08:00:02.122Z,60.75
2023-01-23T08:01:02.311Z,74.60
2023-01-23T08:02:02.189Z,64.94
2023-01-23T08:03:02.113Z,66.87
2023-01-23T08:04:02.193Z,69.93
2023-01-23T08:05:02.103Z,69.93
2023-01-23T08:06:02.059Z,68.96
2023-01-23T08:07:02.043Z,64.45
2023-01-23T08:08:12.985Z,59.94
2023-01-23T08:09:02.088Z,67.03
2023-01-23T08:10:02.052Z,60.59
2023-01-23T08:11:02.041Z,62.68
2023-01-23T08:12:01.991Z,60.59
2023-01-23T08:13:02.072Z,60.26
2023-01-23T08:14:01.971Z,69.77
2023-01-23T08:15:02.014Z,60.26
2023-01-23T08:16:02.777Z,69.29
2023-01-23T08:17:02.067Z,60.26
2023-01-23T08:18:02.165Z,62.84
2023-01-23T08:19:01.977Z,60.75
2023-01-23T08:20:02.583Z,59.14
2023-01-23T08:21:03.375Z,59.94
2023-01-23T08:22:02.079Z,66.39
2023-01-23T08:23:01.914Z,63.97
2023-01-23T08:24:01.904Z,67.68
2023-01-23T08:25:01.867Z,62.04
2023-01-23T08:26:01.886Z,66.71
2023-01-23T08:27:01.863Z,63.16
2023-01-23T08:28:01.857Z,63.97
2023-01-23T08:29:01.881Z,71.38
2023-01-23T08:30:01.944Z,63.81
2023-01-23T08:31:01.934Z,62.04
2023-01-23T08:32:01.932Z,65.10
2023-01-23T08:33:01.801Z,61.39
2023-01-23T08:34:01.798Z,68.16
2023-01-23T08:35:01.784Z,58.01
2023-01-23T08:36:02.598Z,61.07
2023-01-23T08:37:01.847Z,62.52
2023-01-23T08:38:01.809Z,62.84
2023-01-23T08:39:01.728Z,60.42
2023-01-23T08:40:01.769Z,60.59
2023-01-23T08:41:01.775Z,65.58
2023-01-23T08:42:01.712Z,61.87
2023-01-23T08:43:01.725Z,62.20
2023-01-23T08:44:01.811Z,64.61
2023-01-23T08:45:01.702Z,60.26
2023-01-23T08:46:01.903Z,61.87
2023-01-23T08:47:01.853Z,57.69
2023-01-23T08:48:01.664Z,63.81
2023-01-23T08:49:01.826Z,61.87
2023-01-23T08:50:01.691Z,67.51
2023-01-23T08:51:01.781Z,60.59
2023-01-23T08:52:01.638Z,60.75
2023-01-23T08:53:01.742Z,62.84
2023-01-23T08:54:01.627Z,62.36
2023-01-23T08:55:01.676Z,66.06
2023-01-23T08:56:01.611Z,62.68
2023-01-23T08:57:01.627Z,61.71
2023-01-23T08:58:01.594Z,67.68
2023-01-23T08:59:01.562Z,64.94
2023-01-23T09:00:01.590Z,60.75
2023-01-23T09:01:01.581Z,60.91
2023-01-23T09:02:01.625Z,61.07
2023-01-23T09:03:01.548Z,67.68
2023-01-23T09:04:01.502Z,63.16
2023-01-23T09:05:01.464Z,68.32
2023-01-23T09:06:01.460Z,61.55
2023-01-23T09:07:01.462Z,70.25
2023-01-23T09:08:02.321Z,68.32
2023-01-23T09:09:01.435Z,65.58
2023-01-23T09:10:01.437Z,61.87
2023-01-23T09:11:01.420Z,68.80
2023-01-23T09:12:01.460Z,61.71
2023-01-23T09:13:01.392Z,55.91
2023-01-23T09:14:01.401Z,59.78
2023-01-23T09:15:01.412Z,65.26
2023-01-23T09:16:01.357Z,60.42
2023-01-23T09:17:01.384Z,60.59
2023-01-23T09:18:01.385Z,64.94
2023-01-23T09:19:01.317Z,60.26
2023-01-23T09:20:01.363Z,67.84
2023-01-23T09:21:01.313Z,66.39
2023-01-23T09:22:01.316Z,62.52
2023-01-23T09:23:01.315Z,63.97
2023-01-23T09:24:01.286Z,64.13
2023-01-23T09:25:01.274Z,66.06
2023-01-23T09:26:01.272Z,59.78
2023-01-23T09:27:01.276Z,63.81
2023-01-23T09:28:01.241Z,53.50
2023-01-23T09:29:01.263Z,59.62
2023-01-23T09:30:01.254Z,63.16
2023-01-23T09:31:01.270Z,59.78
2023-01-23T09:32:01.276Z,62.68
2023-01-23T09:33:01.565Z,68.64
2023-01-23T09:34:01.188Z,62.20
2023-01-23T09:35:01.213Z,61.55
2023-01-23T09:36:01.183Z,63.97
2023-01-23T09:37:01.146Z,59.46
2023-01-23T09:38:01.172Z,68.00
2023-01-23T09:39:01.167Z,71.87
2023-01-23T09:40:01.153Z,72.67
2023-01-23T09:41:01.111Z,61.55
2023-01-23T09:42:01.178Z,61.71
2023-01-23T09:43:01.430Z,64.78
2023-01-23T09:44:01.113Z,69.13
2023-01-23T09:45:01.101Z,60.91
2023-01-23T09:46:01.165Z,72.99
2023-01-23T09:47:01.133Z,70.90
2023-01-23T09:48:01.071Z,53.98
2023-01-23T09:49:01.061Z,62.36
2023-01-23T09:50:01.042Z,67.35
2023-01-23T09:51:01.055Z,59.62
2023-01-23T09:52:01.008Z,63.33
2023-01-23T09:53:00.998Z,67.51
2023-01-23T09:54:00.995Z,67.03
2023-01-23T09:55:01.025Z,75.57
2023-01-23T09:56:01.010Z,60.10
2023-01-23T09:57:00.951Z,60.91
2023-01-23T09:58:00.992Z,60.42
2023-01-23T09:59:00.951Z,58.65
2023-01-23T10:00:01.332Z,60.75
2023-01-23T10:01:00.910Z,69.45
2023-01-23T10:02:00.990Z,64.13
2023-01-23T10:03:00.941Z,68.32
2023-01-23T10:04:00.927Z,59.94
2023-01-23T10:05:00.904Z,59.62
2023-01-23T10:06:00.869Z,62.84
2023-01-23T10:07:00.873Z,63.49
2023-01-23T10:08:00.861Z,64.45
2023-01-23T10:09:00.841Z,59.62
2023-01-23T10:10:00.852Z,59.46
2023-01-23T10:11:00.834Z,67.84
2023-01-23T10:12:00.823Z,62.52
2023-01-23T10:13:00.816Z,59.62
2023-01-23T10:14:00.798Z,59.62
2023-01-23T10:15:00.788Z,59.78
2023-01-23T10:16:00.765Z,62.04
2023-01-23T10:17:00.800Z,64.13
2023-01-23T10:18:00.834Z,59.78
2023-01-23T10:19:00.844Z,71.06
2023-01-23T10:20:00.772Z,69.13
2023-01-23T10:21:00.789Z,74.12
2023-01-23T10:22:00.777Z,70.90
2023-01-23T10:23:00.746Z,69.29
2023-01-23T10:24:00.721Z,66.87
2023-01-23T10:25:00.701Z,72.03
2023-01-23T10:26:00.672Z,59.30
2023-01-23T10:27:00.674Z,63.49
2023-01-23T10:28:00.671Z,60.10
2023-01-23T10:29:00.675Z,62.04
2023-01-23T10:30:00.663Z,61.55
2023-01-23T10:31:00.784Z,59.62
2023-01-23T10:32:00.719Z,61.55
2023-01-23T10:33:00.615Z,58.01
2023-01-23T10:34:03.439Z,64.78
2023-01-23T10:35:00.605Z,65.90
2023-01-23T10:36:00.594Z,60.26
2023-01-23T10:37:00.569Z,61.07
2023-01-23T10:38:00.577Z,60.91
2023-01-23T10:39:00.681Z,61.39
2023-01-23T10:40:00.545Z,60.42
2023-01-23T10:41:00.546Z,68.48
2023-01-23T10:42:02.754Z,70.74
2023-01-23T10:43:00.502Z,63.16
2023-01-23T10:44:00.510Z,69.77
2023-01-23T10:45:00.510Z,72.51
2023-01-23T10:46:00.518Z,60.26
2023-01-23T10:47:00.479Z,69.77
2023-01-23T10:48:03.615Z,63.81
2023-01-23T10:49:00.464Z,67.35
2023-01-23T10:50:00.559Z,63.16
2023-01-23T10:51:00.568Z,60.75
2023-01-23T10:52:00.422Z,57.52
2023-01-23T10:53:00.423Z,63.00
2023-01-23T10:54:04.608Z,62.20
2023-01-23T10:55:00.427Z,61.71
2023-01-23T10:56:00.396Z,64.78
2023-01-23T10:57:00.407Z,66.71
2023-01-23T10:58:00.403Z,70.42
2023-01-23T10:59:00.388Z,66.23
2023-01-23T11:00:00.390Z,63.81
2023-01-23T11:01:00.351Z,74.28
2023-01-23T11:02:01.095Z,61.23
2023-01-23T11:03:00.333Z,61.07
2023-01-23T11:04:00.341Z,62.84
2023-01-23T11:05:00.317Z,60.26
2023-01-23T11:06:00.298Z,67.68
2023-01-23T11:07:00.266Z,61.07
2023-01-23T11:08:00.268Z,63.81
2023-01-23T11:09:00.338Z,66.55
2023-01-23T11:10:00.317Z,68.00
2023-01-23T11:11:00.223Z,62.84
2023-01-23T11:12:00.253Z,66.23
2023-01-23T11:13:00.881Z,63.16
2023-01-23T11:14:00.238Z,64.29
2023-01-23T11:15:00.240Z,67.19
2023-01-23T11:16:00.284Z,63.81
2023-01-23T11:17:00.234Z,63.49
2023-01-23T11:18:00.204Z,58.81
2023-01-23T11:19:00.159Z,68.16
2023-01-23T11:20:00.146Z,56.72
2023-01-23T11:21:00.563Z,69.13
2023-01-23T11:22:00.173Z,61.39
2023-01-23T11:23:00.253Z,63.65
2023-01-23T11:24:03.862Z,72.67
2023-01-23T11:25:00.183Z,74.77
2023-01-23T11:26:02.000Z,70.90
2023-01-23T11:27:00.098Z,72.03
2023-01-23T11:28:00.077Z,59.30
2023-01-23T11:29:00.750Z,60.10
2023-01-23T11:30:00.261Z,62.84
2023-01-23T11:31:12.501Z,72.19
2023-01-23T11:32:00.723Z,60.10
2023-01-23T11:33:00.028Z,66.39
2023-01-23T11:34:00.060Z,72.83
2023-01-23T11:34:59.998Z,62.36
2023-01-23T11:35:59.992Z,60.75
2023-01-23T11:36:59.985Z,61.23
2023-01-23T11:38:00.016Z,62.84
2023-01-23T11:38:59.968Z,62.20
2023-01-23T11:39:59.966Z,63.81
2023-01-23T11:40:59.984Z,62.68
2023-01-23T11:41:59.954Z,62.52
2023-01-23T11:42:59.989Z,65.74
2023-01-23T11:43:59.900Z,70.09
2023-01-23T11:45:00.017Z,63.97
2023-01-23T11:45:59.960Z,61.87
2023-01-23T11:46:59.900Z,61.23
2023-01-23T11:47:59.860Z,61.23
2023-01-23T11:48:59.875Z,65.42
2023-01-23T11:49:59.851Z,61.39
2023-01-23T11:50:59.887Z,63.65
2023-01-23T11:51:59.829Z,65.26
2023-01-23T11:52:59.816Z,79.28
2023-01-23T11:53:59.832Z,63.97
2023-01-23T11:54:59.930Z,65.26
2023-01-23T11:55:59.904Z,69.61
2023-01-23T11:56:59.879Z,75.25
2023-01-23T11:57:59.764Z,60.91
2023-01-23T11:58:59.793Z,65.90
2023-01-23T11:59:59.762Z,66.06
2023-01-23T12:00:59.777Z,60.42
2023-01-23T12:02:03.456Z,59.94
2023-01-23T12:02:59.792Z,60.75
2023-01-23T12:03:59.769Z,66.06
2023-01-23T12:04:59.711Z,62.20
2023-01-23T12:06:17.636Z,62.20
2023-01-23T12:06:59.715Z,69.29
2023-01-23T12:07:59.698Z,62.52
2023-01-23T12:08:59.965Z,69.29
2023-01-23T12:09:59.671Z,63.33
2023-01-23T12:10:59.647Z,61.39
2023-01-23T12:11:59.616Z,61.55
2023-01-23T12:12:59.669Z,72.83
2023-01-23T12:13:59.675Z,65.42
2023-01-23T12:14:59.620Z,60.26
2023-01-23T12:15:59.671Z,59.78
2023-01-23T12:16:59.712Z,60.91
2023-01-23T12:18:59.758Z,63.49
2023-01-23T12:19:59.803Z,61.07
2023-01-23T12:20:59.599Z,66.87
2023-01-23T12:21:59.522Z,69.77
2023-01-23T12:22:59.539Z,68.32
2023-01-23T12:23:59.502Z,65.74
2023-01-23T12:24:59.542Z,60.75
2023-01-23T12:25:59.535Z,58.81
2023-01-23T12:26:59.738Z,66.87
2023-01-23T12:27:59.470Z,61.39
2023-01-23T12:28:59.485Z,67.51
2023-01-23T12:29:59.437Z,62.36
2023-01-23T12:30:59.522Z,69.29
2023-01-23T12:31:59.554Z,59.62
2023-01-23T12:32:59.439Z,72.03
2023-01-23T12:33:59.420Z,71.22
2023-01-23T12:34:59.484Z,63.00
2023-01-23T12:35:59.395Z,60.42
2023-01-23T12:37:10.251Z,63.00
2023-01-23T12:37:59.472Z,73.48
2023-01-23T12:38:59.365Z,65.26
2023-01-23T12:39:59.506Z,62.68
2023-01-23T12:40:59.351Z,70.42
2023-01-23T12:41:59.354Z,67.35
2023-01-23T12:42:59.357Z,70.58
2023-01-23T12:43:59.299Z,66.06
2023-01-23T12:44:59.332Z,70.25
2023-01-23T12:45:59.302Z,70.42
2023-01-23T12:46:59.351Z,64.61
2023-01-23T12:48:00.847Z,60.10
2023-01-23T12:48:59.292Z,73.80
2023-01-23T12:49:59.246Z,74.44
2023-01-23T12:50:59.291Z,60.91
2023-01-23T12:51:59.285Z,58.49
2023-01-23T12:52:59.243Z,64.45